createdAt,value
2022-11-08T00:00:20.153Z,5.90
2022-11-08T00:02:48.230Z,6.63
2022-11-08T00:05:33.696Z,8.30
2022-11-08T00:08:22.107Z,13.13
2022-11-08T00:11:07.609Z,9.10
2022-11-08T00:13:53.156Z,7.25
2022-11-08T00:16:22.743Z,11.63
2022-11-08T00:18:50.679Z,12.80
2022-11-08T00:21:18.604Z,8.98
2022-11-08T00:23:46.510Z,6.85
2022-11-08T00:26:14.369Z,7.72
2022-11-08T00:28:42.262Z,9.75
2022-11-08T00:31:10.221Z,10.48
2022-11-08T00:33:39.529Z,9.63
2022-11-08T00:36:07.821Z,10.27
2022-11-08T00:38:35.919Z,9.50
2022-11-08T00:41:03.784Z,9.07
2022-11-08T00:43:31.656Z,6.72
2022-11-08T00:45:59.557Z,10.20
2022-11-08T00:48:28.567Z,10.30
2022-11-08T00:51:02.184Z,8.45
2022-11-08T00:53:30.208Z,6.57
2022-11-08T00:56:02.020Z,9.20
2022-11-08T00:58:30.467Z,8.48
2022-11-08T01:00:59.241Z,12.05
2022-11-08T01:03:27.872Z,10.43
2022-11-08T01:05:57.094Z,11.18
2022-11-08T01:08:25.535Z,12.10
2022-11-08T01:10:54.011Z,9.52
2022-11-08T01:13:22.607Z,15.10
2022-11-08T01:15:50.696Z,6.35
2022-11-08T01:18:19.505Z,7.28
2022-11-08T01:20:49.022Z,8.38
2022-11-08T01:23:19.477Z,11.93
2022-11-08T01:25:48.833Z,9.48
2022-11-08T01:28:17.601Z,10.30
2022-11-08T01:30:46.149Z,6.72
2022-11-08T01:33:14.722Z,8.13
2022-11-08T01:35:45.386Z,10.55
2022-11-08T01:38:13.395Z,8.40
2022-11-08T01:40:46.740Z,9.55
2022-11-08T01:43:40.240Z,6.85
2022-11-08T01:46:34.145Z,12.43
2022-11-08T01:49:33.846Z,14.10
2022-11-08T01:52:14.861Z,12.05
2022-11-08T01:54:47.033Z,12.20
2022-11-08T01:57:22.065Z,8.25
2022-11-08T01:59:53.933Z,8.63
2022-11-08T02:02:22.402Z,7.38
2022-11-08T02:04:50.441Z,7.50
2022-11-08T02:07:18.982Z,9.10
2022-11-08T02:09:48.576Z,8.60
2022-11-08T02:12:21.498Z,10.70
2022-11-08T02:14:49.560Z,6.50
2022-11-08T02:17:17.498Z,9.65
2022-11-08T02:19:48.034Z,12.25
2022-11-08T02:22:23.625Z,12.82
2022-11-08T02:24:54.241Z,6.90
2022-11-08T02:27:22.261Z,12.27
2022-11-08T02:29:53.680Z,8.25
2022-11-08T02:32:23.078Z,8.70
2022-11-08T02:34:55.576Z,6.72
2022-11-08T02:37:25.631Z,12.65
2022-11-08T02:39:54.879Z,10.68
2022-11-08T02:42:22.803Z,10.80
2022-11-08T02:44:50.866Z,8.75
2022-11-08T02:47:18.790Z,11.60
2022-11-08T02:49:46.947Z,7.57
2022-11-08T02:52:14.801Z,9.70
2022-11-08T02:54:42.690Z,13.50
2022-11-08T02:57:12.012Z,8.27
2022-11-08T02:59:39.948Z,13.63
2022-11-08T03:02:08.204Z,10.18
2022-11-08T03:04:36.186Z,10.93
2022-11-08T03:07:04.124Z,9.68
2022-11-08T03:09:32.087Z,11.88
2022-11-08T03:11:59.994Z,8.13
2022-11-08T03:14:29.184Z,11.18
2022-11-08T03:16:57.083Z,8.70
2022-11-08T03:19:24.945Z,10.68
2022-11-08T03:21:52.877Z,8.57
2022-11-08T03:24:20.779Z,8.25
2022-11-08T03:26:48.707Z,11.40
2022-11-08T03:29:16.561Z,13.23
2022-11-08T03:31:45.861Z,8.77
2022-11-08T03:34:13.768Z,12.60
2022-11-08T03:36:41.632Z,15.48
2022-11-08T03:39:09.629Z,9.60
2022-11-08T03:41:37.559Z,8.02
2022-11-08T03:44:05.717Z,11.80
2022-11-08T03:46:33.665Z,9.98
2022-11-08T03:49:02.965Z,13.73
2022-11-08T03:51:30.869Z,8.50
2022-11-08T03:53:58.774Z,9.90
2022-11-08T03:56:26.685Z,8.27
2022-11-08T03:58:54.668Z,7.18
2022-11-08T04:01:22.680Z,8.48
2022-11-08T04:03:50.594Z,12.50
2022-11-08T04:06:19.829Z,8.98
2022-11-08T04:08:48.107Z,12.32
2022-11-08T04:11:33.729Z,11.32
2022-11-08T04:14:19.424Z,11.55
2022-11-08T04:16:47.418Z,13.68
2022-11-08T04:19:32.800Z,9.95
2022-11-08T04:22:02.079Z,11.32
2022-11-08T04:24:29.964Z,10.60
2022-11-08T04:26:57.877Z,11.07
2022-11-08T04:29:25.865Z,10.15
2022-11-08T04:31:53.785Z,7.35
2022-11-08T04:34:21.674Z,9.55
2022-11-08T04:36:49.559Z,14.02
2022-11-08T04:39:19.111Z,9.13
2022-11-08T04:41:47.058Z,13.25
2022-11-08T04:44:15.603Z,9.75
2022-11-08T04:46:43.545Z,11.57
2022-11-08T04:49:11.426Z,9.07
2022-11-08T04:51:39.342Z,12.00
2022-11-08T04:54:07.743Z,10.90
2022-11-08T04:56:37.054Z,11.95
2022-11-08T04:59:09.480Z,10.32
2022-11-08T05:01:39.876Z,7.82
2022-11-08T05:04:07.893Z,9.43
2022-11-08T05:06:35.825Z,12.07
2022-11-08T05:09:03.939Z,8.60
2022-11-08T05:11:32.081Z,9.00
2022-11-08T05:14:01.419Z,6.95
2022-11-08T05:16:31.967Z,5.78
2022-11-08T05:19:00.017Z,10.13
2022-11-08T05:21:46.103Z,7.15
2022-11-08T05:24:16.364Z,5.68
2022-11-08T05:26:46.766Z,8.38
2022-11-08T05:29:17.145Z,10.77
2022-11-08T05:31:45.117Z,9.68
2022-11-08T05:34:13.018Z,6.35
2022-11-08T05:36:40.980Z,5.22
2022-11-08T05:39:08.862Z,9.65
2022-11-08T05:41:36.927Z,5.85
2022-11-08T05:44:04.879Z,4.65
2022-11-08T05:46:34.117Z,8.00
2022-11-08T05:49:02.242Z,8.18
2022-11-08T05:51:30.145Z,10.50
2022-11-08T05:53:58.039Z,5.97
2022-11-08T05:56:26.004Z,6.93
2022-11-08T05:58:53.961Z,10.98
2022-11-08T06:01:22.097Z,12.02
2022-11-08T06:03:51.540Z,5.57
2022-11-08T06:06:21.421Z,8.65
2022-11-08T06:08:52.001Z,5.60
2022-11-08T06:11:24.419Z,9.07
2022-11-08T06:13:53.126Z,6.50
2022-11-08T06:16:22.451Z,10.85
2022-11-08T06:18:51.824Z,8.40
2022-11-08T06:21:21.695Z,8.05
2022-11-08T06:23:52.602Z,7.72
2022-11-08T06:26:20.487Z,11.55
2022-11-08T06:28:48.404Z,6.65
2022-11-08T06:31:16.363Z,6.68
2022-11-08T06:33:44.203Z,5.82
2022-11-08T06:36:13.515Z,5.65
2022-11-08T06:38:41.387Z,6.20
2022-11-08T06:41:15.152Z,8.23
2022-11-08T06:43:43.042Z,8.68
2022-11-08T06:46:10.969Z,14.93
2022-11-08T06:48:39.033Z,5.97
2022-11-08T06:51:07.404Z,7.25
2022-11-08T06:53:36.956Z,7.32
2022-11-08T06:56:05.121Z,6.20
2022-11-08T06:58:33.374Z,7.25
2022-11-08T07:01:04.183Z,6.13
2022-11-08T07:03:32.388Z,6.40
2022-11-08T07:06:02.813Z,6.18
2022-11-08T07:08:30.825Z,3.80
2022-11-08T07:11:00.608Z,7.90
2022-11-08T07:13:28.518Z,5.88
2022-11-08T07:15:59.518Z,5.25
2022-11-08T07:18:28.255Z,5.32
2022-11-08T07:20:59.860Z,5.60
2022-11-08T07:23:28.068Z,4.72
2022-11-08T07:25:56.465Z,3.33
2022-11-08T07:28:25.707Z,6.68
2022-11-08T07:30:59.893Z,4.38
2022-11-08T07:33:28.027Z,4.00
2022-11-08T07:35:56.288Z,3.05
2022-11-08T07:38:26.089Z,7.13
2022-11-08T07:40:57.878Z,6.07
2022-11-08T07:43:28.292Z,5.18
2022-11-08T07:45:57.572Z,4.10
2022-11-08T07:48:25.934Z,5.32
2022-11-08T07:50:53.991Z,6.18
2022-11-08T07:53:22.840Z,7.97
2022-11-08T07:55:50.736Z,5.72
2022-11-08T07:58:18.592Z,4.28
2022-11-08T08:00:49.986Z,2.83
2022-11-08T08:03:18.915Z,3.33
2022-11-08T08:05:53.635Z,4.88
2022-11-08T08:08:24.639Z,6.45
2022-11-08T08:10:52.672Z,4.28
2022-11-08T08:13:20.992Z,6.05
2022-11-08T08:15:50.401Z,4.00
2022-11-08T08:18:20.927Z,6.88
2022-11-08T08:20:49.048Z,5.10
2022-11-08T08:23:17.294Z,4.25
2022-11-08T08:25:45.518Z,3.50
2022-11-08T08:28:13.690Z,4.63
2022-11-08T08:30:41.749Z,6.60
2022-11-08T08:33:29.846Z,4.35
2022-11-08T08:36:00.725Z,4.30
2022-11-08T08:38:28.650Z,3.15
2022-11-08T08:40:56.728Z,3.15
2022-11-08T08:43:24.976Z,5.03
2022-11-08T08:45:54.264Z,2.97
2022-11-08T08:48:23.569Z,6.60
2022-11-08T08:50:51.513Z,2.20
2022-11-08T08:53:19.809Z,3.60
2022-11-08T08:55:48.328Z,3.15
2022-11-08T08:58:16.280Z,3.50
2022-11-08T09:03:34.857Z,6.50
2022-11-08T09:06:03.482Z,4.65
2022-11-08T09:08:31.985Z,6.05
2022-11-08T09:11:01.329Z,3.58
2022-11-08T09:13:30.807Z,7.75
2022-11-08T09:16:00.054Z,4.75
2022-11-08T09:18:28.261Z,2.05
2022-11-08T09:20:58.752Z,2.85
2022-11-08T09:23:27.258Z,3.65
2022-11-08T09:25:58.550Z,3.80
2022-11-08T09:28:30.965Z,6.18
2022-11-08T09:31:01.904Z,1.88
2022-11-08T09:33:29.896Z,3.72
2022-11-08T09:36:00.492Z,2.58
2022-11-08T09:38:28.403Z,3.58
2022-11-08T09:41:12.405Z,3.45
2022-11-08T09:44:01.600Z,3.47
2022-11-08T09:46:38.773Z,2.58
2022-11-08T09:49:10.832Z,4.10
2022-11-08T09:51:41.606Z,3.50
2022-11-08T09:54:19.779Z,3.45
2022-11-08T09:59:28.768Z,2.00
2022-11-08T10:01:56.710Z,4.03
2022-11-08T10:04:28.276Z,2.00
2022-11-08T10:07:18.037Z,3.63
2022-11-08T10:10:18.531Z,4.28
2022-11-08T10:12:55.794Z,2.83
2022-11-08T10:15:31.578Z,5.20
2022-11-08T10:18:17.393Z,5.50
2022-11-08T10:20:58.095Z,4.38
2022-11-08T10:23:39.148Z,2.85
2022-11-08T10:26:13.276Z,3.00
2022-11-08T10:28:44.819Z,3.22
2022-11-08T10:31:14.657Z,2.65
2022-11-08T10:33:49.401Z,3.55
2022-11-08T10:36:23.960Z,4.03
2022-11-08T10:39:01.958Z,4.90
2022-11-08T10:41:38.833Z,2.55
2022-11-08T10:44:08.829Z,2.72
2022-11-08T10:46:43.577Z,2.90
2022-11-08T10:49:19.660Z,2.58
2022-11-08T10:51:54.204Z,7.60
2022-11-08T10:54:56.127Z,3.20
2022-11-08T10:57:53.902Z,4.03
2022-11-08T11:00:33.238Z,3.20
2022-11-08T11:03:03.974Z,3.25
2022-11-08T11:05:38.788Z,2.65
2022-11-08T11:08:23.060Z,3.10
2022-11-08T11:10:52.126Z,6.05
2022-11-08T11:16:04.676Z,6.68
2022-11-08T11:18:36.445Z,3.28
2022-11-08T11:21:10.051Z,6.28
2022-11-08T11:23:52.452Z,5.55
2022-11-08T11:26:32.333Z,3.00
2022-11-08T11:29:18.824Z,2.10
2022-11-08T11:31:51.121Z,6.47
2022-11-08T11:34:44.028Z,5.35
2022-11-08T11:37:30.208Z,2.67
2022-11-08T11:40:22.357Z,3.42
2022-11-08T11:43:01.194Z,5.32
2022-11-08T11:45:46.768Z,3.05
2022-11-08T11:48:19.207Z,3.75
2022-11-08T11:50:49.424Z,2.78
2022-11-08T11:53:21.659Z,3.78
2022-11-08T11:56:31.122Z,4.47
2022-11-08T11:59:15.964Z,3.15
2022-11-08T12:02:00.944Z,2.20
2022-11-08T12:04:48.375Z,3.20
2022-11-08T12:07:20.664Z,2.88
2022-11-08T12:10:02.609Z,3.80
2022-11-08T12:12:42.753Z,3.20
2022-11-08T12:15:23.018Z,2.53
2022-11-08T12:18:21.667Z,1.52
2022-11-08T12:21:09.914Z,2.42
2022-11-08T12:24:08.589Z,1.45
2022-11-08T12:26:45.646Z,2.13
2022-11-08T12:29:27.105Z,4.82
2022-11-08T12:32:20.223Z,2.10
2022-11-08T12:35:03.911Z,3.78
2022-11-08T12:37:47.364Z,4.10
2022-11-08T12:40:20.708Z,5.13
2022-11-08T12:43:01.022Z,2.38
2022-11-08T12:45:44.487Z,2.28
2022-11-08T12:48:24.305Z,1.33
2022-11-08T12:51:03.011Z,4.20
2022-11-08T12:53:56.697Z,3.40
2022-11-08T12:56:29.337Z,2.83
2022-11-08T12:58:58.869Z,2.45
2022-11-08T13:01:27.304Z,2.42
2022-11-08T13:04:06.368Z,6.60
2022-11-08T13:06:43.626Z,3.67
2022-11-08T13:09:21.790Z,2.67
2022-11-08T13:14:23.193Z,1.67
2022-11-08T13:17:16.803Z,1.95
2022-11-08T13:20:00.671Z,4.93
2022-11-08T13:23:01.067Z,3.92
2022-11-08T13:25:37.285Z,3.35
2022-11-08T13:28:36.497Z,4.13
2022-11-08T13:31:18.081Z,2.13
2022-11-08T13:33:55.899Z,2.45
2022-11-08T13:36:34.282Z,1.85
2022-11-08T13:39:25.019Z,1.63
2022-11-08T13:42:04.408Z,2.80
2022-11-08T13:44:57.989Z,3.38
2022-11-08T13:47:55.422Z,4.63
2022-11-08T13:50:49.357Z,1.98
2022-11-08T13:53:54.463Z,2.90
2022-11-08T13:56:49.481Z,2.72
2022-11-08T13:59:59.728Z,2.80
2022-11-08T14:02:38.448Z,2.15
2022-11-08T14:05:24.296Z,2.53
2022-11-08T14:08:19.372Z,4.05
2022-11-08T14:11:17.000Z,1.75
2022-11-08T14:14:17.740Z,2.83
2022-11-08T14:16:57.541Z,3.17
2022-11-08T14:19:26.695Z,4.68
2022-11-08T14:21:58.143Z,5.68
2022-11-08T14:24:29.017Z,3.40
2022-11-08T14:26:57.539Z,2.25
2022-11-08T14:29:26.859Z,4.68
2022-11-08T14:32:06.424Z,1.77
2022-11-08T14:34:36.470Z,1.48
2022-11-08T14:37:05.930Z,2.55
2022-11-08T14:39:35.555Z,3.78
2022-11-08T14:42:06.398Z,2.33
2022-11-08T14:44:36.384Z,3.38
2022-11-08T14:47:05.581Z,3.15
2022-11-08T14:49:35.415Z,4.20
2022-11-08T14:52:07.892Z,2.00
2022-11-08T14:54:40.425Z,2.67
2022-11-08T14:57:30.357Z,2.42
2022-11-08T15:00:01.809Z,5.53
2022-11-08T15:02:30.129Z,2.53
2022-11-08T15:04:58.059Z,2.95
2022-11-08T15:07:26.865Z,3.10
2022-11-08T15:09:55.360Z,2.78
2022-11-08T15:12:25.629Z,1.98
2022-11-08T15:14:59.880Z,2.85
2022-11-08T15:17:35.756Z,4.10
2022-11-08T15:20:22.664Z,3.50
2022-11-08T15:22:55.469Z,2.22
2022-11-08T15:25:29.567Z,3.70
2022-11-08T15:27:59.146Z,2.38
2022-11-08T15:30:38.204Z,3.63
2022-11-08T15:33:20.444Z,3.30
2022-11-08T15:35:48.588Z,2.05
2022-11-08T15:38:33.192Z,3.78
2022-11-08T15:41:03.452Z,3.95
2022-11-08T15:43:41.175Z,2.30
2022-11-08T15:46:34.642Z,2.78
2022-11-08T15:49:03.945Z,3.10
2022-11-08T15:51:32.037Z,2.67
2022-11-08T15:53:59.923Z,8.75
2022-11-08T15:56:27.840Z,3.13
2022-11-08T15:58:55.745Z,7.88
2022-11-08T16:01:23.889Z,4.03
2022-11-08T16:03:52.534Z,2.85
2022-11-08T16:06:21.833Z,2.50
2022-11-08T16:08:49.733Z,4.32
2022-11-08T16:11:21.633Z,2.10
2022-11-08T16:13:51.902Z,2.80
2022-11-08T16:16:20.090Z,3.33
2022-11-08T16:18:47.933Z,2.00
2022-11-08T16:21:16.003Z,3.22
2022-11-08T16:23:45.283Z,9.82
2022-11-08T16:26:17.219Z,3.50
2022-11-08T16:28:45.660Z,1.85
2022-11-08T16:31:15.917Z,2.90
2022-11-08T16:33:45.732Z,5.97
2022-11-08T16:36:19.614Z,4.50
2022-11-08T16:38:53.943Z,6.35
2022-11-08T16:41:23.415Z,1.83
2022-11-08T16:43:51.684Z,3.72
2022-11-08T16:46:21.843Z,1.70
2022-11-08T16:48:53.964Z,4.53
2022-11-08T16:51:25.180Z,7.18
2022-11-08T16:53:55.005Z,4.93
2022-11-08T16:56:23.267Z,4.85
2022-11-08T16:58:51.517Z,3.75
2022-11-08T17:01:23.822Z,11.68
2022-11-08T17:03:51.878Z,3.50
2022-11-08T17:06:20.088Z,3.45
2022-11-08T17:08:48.302Z,4.05
2022-11-08T17:11:19.601Z,2.88
2022-11-08T17:13:48.293Z,6.63
2022-11-08T17:16:16.709Z,8.50
2022-11-08T17:18:48.579Z,4.90
2022-11-08T17:24:07.935Z,4.70
2022-11-08T17:26:37.341Z,3.42
2022-11-08T17:29:07.997Z,4.57
2022-11-08T17:31:35.909Z,10.93
2022-11-08T17:34:03.817Z,6.40
2022-11-08T17:36:31.711Z,5.18
2022-11-08T17:38:59.592Z,4.93
2022-11-08T17:41:27.477Z,3.83
2022-11-08T17:43:56.693Z,4.95
2022-11-08T17:46:24.589Z,5.82
2022-11-08T17:48:52.453Z,6.15
2022-11-08T17:51:20.529Z,5.40
2022-11-08T17:53:48.849Z,3.60
2022-11-08T17:56:16.811Z,4.82
2022-11-08T17:58:44.716Z,5.20
2022-11-08T18:01:15.935Z,4.85
2022-11-08T18:03:43.931Z,11.18
2022-11-08T18:06:14.258Z,4.95
2022-11-08T18:08:42.446Z,4.03
2022-11-08T18:11:10.872Z,6.15
2022-11-08T18:13:38.919Z,6.68
2022-11-08T18:16:08.143Z,7.70
2022-11-08T18:18:38.860Z,5.72
2022-11-08T18:21:07.697Z,5.72
2022-11-08T18:23:35.978Z,4.68
2022-11-08T18:26:05.046Z,4.60
2022-11-08T18:28:32.959Z,9.43
2022-11-08T18:31:05.869Z,5.18
2022-11-08T18:33:33.913Z,6.72
2022-11-08T18:36:06.014Z,5.60
2022-11-08T18:38:35.428Z,4.95
2022-11-08T18:41:03.404Z,5.13
2022-11-08T18:43:31.530Z,6.38
2022-11-08T18:46:03.790Z,4.40
2022-11-08T18:48:35.437Z,5.22
2022-11-08T18:51:05.388Z,8.43
2022-11-08T18:53:33.729Z,6.93
2022-11-08T18:56:01.780Z,7.32
2022-11-08T18:58:29.701Z,6.10
2022-11-08T19:00:58.903Z,8.55
2022-11-08T19:03:27.285Z,4.95
2022-11-08T19:05:55.755Z,5.60
2022-11-08T19:08:26.846Z,4.63
2022-11-08T19:10:56.750Z,6.68
2022-11-08T19:13:26.013Z,4.90
2022-11-08T19:15:57.754Z,11.93
2022-11-08T19:18:25.988Z,4.97
2022-11-08T19:20:58.005Z,4.40
2022-11-08T19:23:27.650Z,7.20
2022-11-08T19:25:57.666Z,11.00
2022-11-08T19:28:30.273Z,6.80
2022-11-08T19:31:00.503Z,7.03
2022-11-08T19:33:30.101Z,6.50
2022-11-08T19:36:02.078Z,3.53
2022-11-08T19:38:32.658Z,7.50
2022-11-08T19:41:02.800Z,13.18
2022-11-08T19:43:31.161Z,5.82
2022-11-08T19:46:03.548Z,7.30
2022-11-08T19:48:32.453Z,4.28
2022-11-08T19:51:02.111Z,4.47
2022-11-08T19:53:31.923Z,8.98
2022-11-08T19:56:01.133Z,5.85
2022-11-08T19:58:29.524Z,8.00
2022-11-08T20:00:57.433Z,4.18
2022-11-08T20:03:25.281Z,5.47
2022-11-08T20:05:53.753Z,5.13
2022-11-08T20:08:22.322Z,5.53
2022-11-08T20:10:51.591Z,7.82
2022-11-08T20:13:19.754Z,6.53
2022-11-08T20:15:47.888Z,7.25
2022-11-08T20:18:16.220Z,8.38
2022-11-08T20:20:45.307Z,8.38
2022-11-08T20:23:17.310Z,7.05
2022-11-08T20:25:45.197Z,6.03
2022-11-08T20:28:14.458Z,7.72
2022-11-08T20:30:42.431Z,8.20
2022-11-08T20:33:10.297Z,6.80
2022-11-08T20:35:38.675Z,5.40
2022-11-08T20:38:06.557Z,8.68
2022-11-08T20:40:34.663Z,6.60
2022-11-08T20:43:02.581Z,5.88
2022-11-08T20:45:31.879Z,5.68
2022-11-08T20:48:02.744Z,4.85
2022-11-08T20:50:30.828Z,6.40
2022-11-08T20:52:58.682Z,6.50
2022-11-08T20:55:27.714Z,7.03
2022-11-08T20:57:55.596Z,6.75
2022-11-08T21:00:37.946Z,6.85
2022-11-08T21:03:17.795Z,6.30
2022-11-08T21:05:52.710Z,8.48
2022-11-08T21:11:10.750Z,5.65
2022-11-08T21:13:40.193Z,7.13
2022-11-08T21:16:28.702Z,7.28
2022-11-08T21:18:59.418Z,7.43
2022-11-08T21:21:27.964Z,4.43
2022-11-08T21:23:55.868Z,6.57
2022-11-08T21:26:24.137Z,4.82
2022-11-08T21:28:52.323Z,6.18
2022-11-08T21:31:20.281Z,6.50
2022-11-08T21:33:48.116Z,6.00
2022-11-08T21:36:18.277Z,11.73
2022-11-08T21:38:46.341Z,6.28
2022-11-08T21:41:14.406Z,10.88
2022-11-08T21:43:44.412Z,6.70
2022-11-08T21:46:16.593Z,5.72
2022-11-08T21:48:44.465Z,5.45
2022-11-08T21:51:12.611Z,13.73
2022-11-08T21:53:52.537Z,4.55
2022-11-08T21:56:22.560Z,7.82
2022-11-08T21:58:50.456Z,9.50
2022-11-08T22:01:18.871Z,6.82
2022-11-08T22:03:47.360Z,8.25
2022-11-08T22:06:15.364Z,7.88
2022-11-08T22:08:44.565Z,7.15
2022-11-08T22:11:12.430Z,9.50
2022-11-08T22:13:40.456Z,7.93
2022-11-08T22:16:08.740Z,12.82
2022-11-08T22:19:03.121Z,7.20
2022-11-08T22:21:39.993Z,10.45
2022-11-08T22:24:11.716Z,9.90
2022-11-08T22:26:40.044Z,7.53
2022-11-08T22:29:08.214Z,8.85
2022-11-08T22:31:36.136Z,8.63
2022-11-08T22:34:04.854Z,8.80
2022-11-08T22:36:33.461Z,11.10
2022-11-08T22:39:01.545Z,9.73
2022-11-08T22:41:31.162Z,7.38
2022-11-08T22:43:59.037Z,7.30
2022-11-08T22:46:26.956Z,6.05
2022-11-08T22:48:54.811Z,6.65
2022-11-08T22:51:22.687Z,5.22
2022-11-08T22:53:50.528Z,5.60
2022-11-08T22:56:18.413Z,8.82
2022-11-08T22:58:47.739Z,8.63
2022-11-08T23:01:16.716Z,8.77
2022-11-08T23:03:45.940Z,11.43
2022-11-08T23:06:14.430Z,6.55
2022-11-08T23:08:42.873Z,6.53
2022-11-08T23:11:25.030Z,7.43
2022-11-08T23:14:11.889Z,6.20
2022-11-08T23:16:42.521Z,5.97
2022-11-08T23:19:30.941Z,4.75
2022-11-08T23:22:16.555Z,4.68
2022-11-08T23:24:44.535Z,7.55
2022-11-08T23:27:31.276Z,7.75
2022-11-08T23:30:17.992Z,9.13
2022-11-08T23:32:47.536Z,5.20
2022-11-08T23:35:16.049Z,4.43
2022-11-08T23:37:44.172Z,11.68
2022-11-08T23:40:31.706Z,7.30
2022-11-08T23:43:24.767Z,6.35
2022-11-08T23:45:54.112Z,5.03
2022-11-08T23:48:22.019Z,5.40
2022-11-08T23:50:54.872Z,11.57
2022-11-08T23:53:25.667Z,5.80
2022-11-08T23:55:53.650Z,7.07
2022-11-08T23:58:22.105Z,4.18
